Time;durP1;ratioP1;P1;durP2;ratioP2;P2;SDS_P1;SDS_P2;PMS_P1;PMS_P2;Temp;Humidity;BMP_temperature;BMP_pressure;BME280_temperature;BME280_humidity;BME280_pressure;Samples;Min_cycle;Max_cycle;Signal;HPM_P1;HPM_P2
2021/04/23 00:01:44;;;;;;;0.35;0.35;;;4.70;61.90;;;;;;4994395;28;20018;-75
2021/04/23 00:04:11;;;;;;;0.47;0.47;;;4.70;62.00;;;;;;4994472;28;20026;-77
2021/04/23 00:06:40;;;;;;;0.57;0.57;;;4.70;62.10;;;;;;4994402;28;20021;-76
2021/04/23 00:09:10;;;;;;;0.50;0.50;;;4.70;62.20;;;;;;4993730;28;20034;-77
2021/04/23 00:11:47;;;;;;;0.43;0.43;;;4.70;62.20;;;;;;4994219;28;20060;-76
2021/04/23 00:14:15;;;;;;;0.50;0.50;;;4.70;62.20;;;;;;5009436;28;20450;-77
2021/04/23 00:16:42;;;;;;;1.35;0.55;;;4.70;62.30;;;;;;4994291;28;20022;-77
2021/04/23 00:19:12;;;;;;;0.40;0.40;;;4.70;62.40;;;;;;4992831;28;20030;-77
2021/04/23 00:21:39;;;;;;;0.63;0.63;;;4.70;62.40;;;;;;4994161;28;20027;-76
2021/04/23 00:24:05;;;;;;;0.45;0.45;;;4.70;62.40;;;;;;4993647;28;20030;-77
2021/04/23 00:26:30;;;;;;;0.47;0.47;;;4.70;62.40;;;;;;5008956;28;20435;-76
2021/04/23 00:28:56;;;;;;;0.40;0.40;;;4.70;62.50;;;;;;4994041;28;20117;-76
2021/04/23 00:31:22;;;;;;;0.35;0.35;;;4.60;62.60;;;;;;4993995;28;20026;-76
2021/04/23 00:33:47;;;;;;;0.40;0.40;;;4.60;62.60;;;;;;4994144;28;20069;-75
2021/04/23 00:36:13;;;;;;;0.40;0.40;;;4.50;62.70;;;;;;4994056;28;20026;-76
2021/04/23 00:38:40;;;;;;;0.40;0.35;;;4.50;62.90;;;;;;4993450;28;20443;-76
2021/04/23 00:41:15;;;;;;;0.55;0.55;;;4.50;63.00;;;;;;4993900;28;20471;-76
2021/04/23 00:43:44;;;;;;;0.50;0.50;;;4.50;63.10;;;;;;4993862;28;20023;-76
2021/04/23 00:46:11;;;;;;;0.47;0.40;;;4.40;63.10;;;;;;4994064;28;20018;-76
2021/04/23 00:48:42;;;;;;;0.63;0.52;;;4.40;63.20;;;;;;4996659;28;20030;-76
2021/04/23 00:51:11;;;;;;;0.28;0.28;;;4.40;63.30;;;;;;5013419;28;20029;-76
2021/04/23 00:53:40;;;;;;;0.40;0.40;;;4.40;63.40;;;;;;5012884;28;20113;-76
2021/04/23 00:56:11;;;;;;;0.50;0.47;;;4.30;63.40;;;;;;5013641;28;20018;-76
2021/04/23 00:58:36;;;;;;;0.93;0.60;;;4.40;63.40;;;;;;5012035;28;20026;-76
2021/04/23 01:01:08;;;;;;;0.65;0.35;;;4.40;63.40;;;;;;5013466;28;20026;-76
2021/04/23 01:03:34;;;;;;;1.08;0.70;;;4.40;63.40;;;;;;5013556;28;20022;-75
2021/04/23 01:06:04;;;;;;;0.35;0.35;;;4.40;64.00;;;;;;5012825;28;20033;-77
2021/04/23 01:08:29;;;;;;;0.40;0.40;;;4.40;63.30;;;;;;5016755;28;20101;-78
2021/04/23 01:10:58;;;;;;;0.40;0.40;;;4.40;63.30;;;;;;5017020;28;20053;-77
2021/04/23 01:13:30;;;;;;;0.40;0.40;;;4.40;63.30;;;;;;5017383;28;20026;-77
2021/04/23 01:15:57;;;;;;;0.43;0.43;;;4.40;63.30;;;;;;5017309;28;20058;-76
2021/04/23 01:18:23;;;;;;;1.77;0.65;;;4.40;63.40;;;;;;5017056;28;20469;-77
2021/04/23 01:20:53;;;;;;;0.57;0.43;;;4.30;63.40;;;;;;5015313;28;20026;-77
2021/04/23 01:23:19;;;;;;;0.40;0.40;;;4.30;63.50;;;;;;5017076;28;20042;-77
2021/04/23 01:25:44;;;;;;;0.13;0.13;;;4.30;63.60;;;;;;5016847;28;20037;-78
2021/04/23 01:28:10;;;;;;;0.25;0.25;;;4.30;63.60;;;;;;5016865;28;20034;-75
2021/04/23 01:30:36;;;;;;;0.40;0.40;;;4.20;63.60;;;;;;5016845;28;20022;-77
2021/04/23 01:33:01;;;;;;;0.45;0.40;;;4.20;63.60;;;;;;5016850;28;20164;-77
2021/04/23 01:35:27;;;;;;;0.68;0.45;;;4.20;63.60;;;;;;5015092;28;20064;-76
2021/04/23 01:37:53;;;;;;;0.40;0.40;;;4.10;63.60;;;;;;5015385;28;20021;-77
2021/04/23 01:40:21;;;;;;;1.55;0.40;;;4.10;63.80;;;;;;5016728;28;20030;-78
2021/04/23 01:42:46;;;;;;;0.40;0.40;;;4.10;63.90;;;;;;5016571;28;20393;-77
2021/04/23 01:45:14;;;;;;;0.22;0.22;;;4.00;63.90;;;;;;5016624;28;20017;-79
2021/04/23 01:47:39;;;;;;;0.40;0.30;;;4.00;64.00;;;;;;5015076;28;20442;-76
2021/04/23 01:50:09;;;;;;;0.50;0.50;;;4.00;64.10;;;;;;5015954;28;20058;-77
2021/04/23 01:52:35;;;;;;;;;;;4.00;64.20;;;;;;5016708;28;20091;-76
2021/04/23 01:55:01;;;;;;;0.68;0.68;;;3.90;63.90;;;;;;5016484;28;19905;-77
2021/04/23 01:57:26;;;;;;;0.40;0.40;;;3.90;64.10;;;;;;5016430;28;20501;-76
2021/04/23 01:59:52;;;;;;;0.32;0.32;;;3.90;64.80;;;;;;5016291;28;20026;-77
2021/04/23 02:02:18;;;;;;;0.45;0.45;;;3.90;64.20;;;;;;5014917;28;20022;-77
2021/04/23 02:04:46;;;;;;;0.25;0.20;;;3.90;64.20;;;;;;5015796;28;20382;-76
2021/04/23 02:07:14;;;;;;;0.45;0.45;;;3.80;64.30;;;;;;5016208;28;20025;-77
2021/04/23 02:09:39;;;;;;;0.35;0.35;;;3.80;64.40;;;;;;5015991;28;20042;-77
2021/04/23 02:12:06;;;;;;;0.60;0.60;;;3.80;64.50;;;;;;5015745;28;20050;-76
2021/04/23 02:14:32;;;;;;;1.10;0.40;;;3.70;64.60;;;;;;5015870;28;20083;-77
2021/04/23 02:16:58;;;;;;;0.50;0.50;;;3.70;64.80;;;;;;5016025;28;20033;-76
2021/04/23 02:19:24;;;;;;;0.20;0.20;;;3.70;64.90;;;;;;5014491;28;20018;-76
2021/04/23 02:21:50;;;;;;;0.40;0.40;;;3.60;64.90;;;;;;5015682;28;20026;-76
2021/04/23 02:24:16;;;;;;;0.45;0.45;;;3.60;65.00;;;;;;5015884;28;20498;-77
2021/04/23 02:26:42;;;;;;;0.55;0.40;;;3.60;65.10;;;;;;5015672;28;20014;-77
2021/04/23 02:29:11;;;;;;;0.50;0.40;;;3.50;65.10;;;;;;5015484;28;20069;-77
2021/04/23 02:31:39;;;;;;;0.60;0.60;;;3.50;65.30;;;;;;5016074;28;20037;-77
2021/04/23 02:34:11;;;;;;;0.45;0.45;;;3.40;65.40;;;;;;5015335;28;20060;-78
2021/04/23 02:36:38;;;;;;;0.57;0.57;;;3.40;65.60;;;;;;5015353;28;20026;-77
2021/04/23 02:39:07;;;;;;;0.38;0.38;;;3.30;65.70;;;;;;5015616;28;20113;-77
2021/04/23 02:41:35;;;;;;;0.40;0.40;;;3.30;65.70;;;;;;5015499;28;20018;-77
2021/04/23 02:44:01;;;;;;;0.50;0.50;;;3.30;65.80;;;;;;5015411;28;20049;-77
2021/04/23 02:46:27;;;;;;;0.30;0.30;;;3.30;65.80;;;;;;5015213;28;20026;-78
2021/04/23 02:48:53;;;;;;;0.63;0.40;;;3.30;65.90;;;;;;5012700;28;20040;-77
2021/04/23 02:51:30;;;;;;;0.95;0.57;;;3.20;65.90;;;;;;4995689;28;20038;-77
2021/04/23 02:53:57;;;;;;;0.22;0.20;;;3.20;66.00;;;;;;4995644;28;20058;-78
2021/04/23 02:56:24;;;;;;;1.05;0.65;;;3.20;66.10;;;;;;4995702;28;20352;-77
2021/04/23 02:58:51;;;;;;;0.40;0.40;;;3.20;66.10;;;;;;5010539;28;20015;-77
2021/04/23 03:01:19;;;;;;;0.85;0.60;;;3.20;66.10;;;;;;4994118;28;20026;-78
2021/04/23 03:03:45;;;;;;;1.65;0.43;;;3.20;66.20;;;;;;4995073;28;20019;-77
2021/04/23 03:06:12;;;;;;;0.40;0.40;;;3.20;66.20;;;;;;4995482;28;20031;-77
2021/04/23 03:08:38;;;;;;;0.43;0.40;;;3.30;66.20;;;;;;4995278;28;20034;-77
2021/04/23 03:11:11;;;;;;;0.40;0.40;;;3.30;66.20;;;;;;4995026;28;20045;-76
2021/04/23 03:13:39;;;;;;;0.30;0.30;;;3.30;66.20;;;;;;5010465;28;20084;-76
2021/04/23 03:16:06;;;;;;;0.85;0.70;;;3.30;66.30;;;;;;4995374;28;20029;-76
2021/04/23 03:18:32;;;;;;;0.80;0.60;;;3.30;66.40;;;;;;4994779;28;20554;-77
2021/04/23 03:21:00;;;;;;;0.45;0.45;;;3.30;66.60;;;;;;4995312;28;20019;-76
2021/04/23 03:23:26;;;;;;;0.47;0.43;;;3.20;66.70;;;;;;4995264;28;20454;-77
2021/04/23 03:25:52;;;;;;;0.60;0.60;;;3.20;66.70;;;;;;4995315;28;20490;-76
2021/04/23 03:28:18;;;;;;;0.98;0.90;;;3.20;66.80;;;;;;4995954;28;20041;-77
2021/04/23 03:30:45;;;;;;;0.50;0.50;;;3.10;66.90;;;;;;4995323;28;20018;-77
2021/04/23 03:33:14;;;;;;;0.30;0.30;;;3.10;67.00;;;;;;4995382;28;20019;-78
2021/04/23 03:35:41;;;;;;;0.52;0.43;;;3.00;67.10;;;;;;4995011;28;20045;-78
2021/04/23 03:38:08;;;;;;;1.98;0.90;;;3.00;67.20;;;;;;4993483;28;20378;-76
2021/04/23 03:40:35;;;;;;;0.70;0.70;;;2.90;67.30;;;;;;4994856;28;20022;-77
2021/04/23 03:43:02;;;;;;;0.43;0.43;;;2.90;67.40;;;;;;4994701;28;20061;-77
2021/04/23 03:45:28;;;;;;;1.90;0.93;;;2.90;67.50;;;;;;4994222;28;20030;-79
2021/04/23 03:47:54;;;;;;;0.60;0.60;;;2.80;67.50;;;;;;4994544;28;20501;-77
2021/04/23 03:50:25;;;;;;;0.65;0.55;;;2.80;67.50;;;;;;4994494;28;20168;-77
2021/04/23 03:52:52;;;;;;;0.43;0.40;;;2.80;67.50;;;;;;4994655;28;20015;-77
2021/04/23 03:55:26;;;;;;;0.73;0.70;;;2.80;67.60;;;;;;4994523;28;20027;-77
2021/04/23 03:57:51;;;;;;;0.50;0.50;;;2.80;67.70;;;;;;4994374;28;20467;-76
2021/04/23 04:00:23;;;;;;;0.40;0.40;;;2.70;67.70;;;;;;4994022;28;20027;-77
2021/04/23 04:02:48;;;;;;;0.50;0.50;;;2.70;67.90;;;;;;4993307;28;20082;-77
2021/04/23 04:05:14;;;;;;;0.90;0.60;;;2.70;68.00;;;;;;4994528;28;20034;-77
2021/04/23 04:07:40;;;;;;;1.00;0.50;;;2.70;68.00;;;;;;4994716;28;20378;-77
2021/04/23 04:10:08;;;;;;;0.60;0.60;;;2.70;67.90;;;;;;4994457;28;20034;-77
2021/04/23 04:12:33;;;;;;;1.23;0.75;;;2.70;68.00;;;;;;5009308;28;20486;-77
2021/04/23 04:14:59;;;;;;;0.88;0.70;;;2.60;67.90;;;;;;4993981;28;20037;-76
2021/04/23 04:17:25;;;;;;;0.75;0.70;;;2.50;68.10;;;;;;4994280;28;20073;-76
2021/04/23 04:19:50;;;;;;;0.82;0.82;;;2.50;68.20;;;;;;4994164;28;20030;-77
2021/04/23 04:22:16;;;;;;;0.88;0.80;;;2.60;68.10;;;;;;4994499;28;20364;-77
2021/04/23 04:24:44;;;;;;;1.13;0.70;;;2.70;68.00;;;;;;4994297;28;20105;-77
2021/04/23 04:27:09;;;;;;;0.73;0.65;;;2.70;67.90;;;;;;4993828;28;20391;-77
2021/04/23 04:29:35;;;;;;;1.60;0.80;;;2.80;68.10;;;;;;4993856;28;20031;-77
2021/04/23 04:32:00;;;;;;;0.82;0.68;;;2.80;68.00;;;;;;4994232;28;20062;-77
2021/04/23 04:34:26;;;;;;;0.50;0.50;;;2.90;67.90;;;;;;4994082;28;20033;-77
2021/04/23 04:36:52;;;;;;;0.70;0.70;;;3.00;67.90;;;;;;4994075;28;20531;-78
2021/04/23 04:39:17;;;;;;;0.95;0.57;;;3.10;67.80;;;;;;4994108;28;20026;-77
2021/04/23 04:41:43;;;;;;;0.85;0.82;;;3.10;67.90;;;;;;4993399;28;20388;-77
2021/04/23 04:44:09;;;;;;;0.57;0.52;;;3.20;67.90;;;;;;4993603;28;20081;-76
2021/04/23 04:46:34;;;;;;;0.73;0.73;;;3.30;67.90;;;;;;4993950;28;20409;-76
2021/04/23 04:49:00;;;;;;;1.05;0.73;;;3.30;67.80;;;;;;4993534;28;20447;-77
2021/04/23 04:51:26;;;;;;;0.75;0.68;;;3.30;67.80;;;;;;4997090;28;20475;-77
2021/04/23 04:53:52;;;;;;;1.25;0.82;;;3.30;67.90;;;;;;4993910;28;20026;-78
2021/04/23 04:56:18;;;;;;;0.65;0.57;;;3.40;67.90;;;;;;4993905;28;20018;-77
2021/04/23 04:58:43;;;;;;;1.02;0.93;;;3.50;67.80;;;;;;4993375;28;20022;-78
2021/04/23 05:01:11;;;;;;;1.05;0.68;;;3.70;67.80;;;;;;4993840;28;20546;-77
2021/04/23 05:03:38;;;;;;;1.05;0.93;;;3.80;67.80;;;;;;4993603;28;20038;-77
2021/04/23 05:06:05;;;;;;;1.40;0.73;;;3.90;67.60;;;;;;4993764;28;20023;-77
2021/04/23 05:08:30;;;;;;;0.70;0.50;;;4.00;67.50;;;;;;4993553;28;20031;-78
2021/04/23 05:10:57;;;;;;;0.52;0.52;;;4.20;67.50;;;;;;4993649;28;20041;-78
2021/04/23 05:13:22;;;;;;;2.15;0.63;;;4.30;67.20;;;;;;4993219;28;20030;-77
2021/04/23 05:15:48;;;;;;;1.13;0.90;;;4.40;67.20;;;;;;4993604;28;20027;-78
2021/04/23 05:18:14;;;;;;;0.77;0.57;;;4.50;67.40;;;;;;4993733;28;20514;-75
2021/04/23 05:20:39;;;;;;;0.63;0.60;;;4.50;67.30;;;;;;4994010;28;20050;-81
2021/04/23 05:23:06;;;;;;;1.55;0.80;;;4.70;67.40;;;;;;4992664;28;20026;-80
2021/04/23 05:25:33;;;;;;;0.77;0.43;;;4.80;67.30;;;;;;4994047;28;20023;-79
2021/04/23 05:27:58;;;;;;;0.88;0.88;;;4.90;67.10;;;;;;4993374;28;20025;-78
2021/04/23 05:30:29;;;;;;;1.95;0.80;;;5.10;66.90;;;;;;4993747;28;20113;-79
2021/04/23 05:32:54;;;;;;;0.40;0.40;;;5.30;66.80;;;;;;4993445;28;20034;-78
2021/04/23 05:35:22;;;;;;;0.57;0.57;;;5.40;66.50;;;;;;4993618;28;20053;-76
2021/04/23 05:37:49;;;;;;;0.50;0.50;;;5.60;66.40;;;;;;4993506;28;20077;-78
2021/04/23 05:40:29;;;;;;;0.70;0.70;;;5.70;66.30;;;;;;4993824;28;20110;-79
2021/04/23 05:42:55;;;;;;;0.90;0.88;;;5.70;66.40;;;;;;4993530;28;20027;-82
2021/04/23 05:45:22;;;;;;;0.60;0.60;;;5.80;66.40;;;;;;4994131;28;20029;-80
2021/04/23 05:47:48;;;;;;;0.70;0.70;;;5.80;66.60;;;;;;4995389;28;20042;-81
2021/04/23 05:50:15;;;;;;;0.60;0.50;;;5.90;66.70;;;;;;4995261;28;20066;-81
2021/04/23 05:52:42;;;;;;;0.75;0.75;;;6.00;66.70;;;;;;4994929;28;20027;-82
2021/04/23 05:55:09;;;;;;;0.70;0.70;;;6.10;66.70;;;;;;4995030;28;20025;-80
2021/04/23 05:57:34;;;;;;;0.77;0.77;;;6.20;66.70;;;;;;4996182;28;20073;-81
2021/04/23 06:00:00;;;;;;;3.35;1.00;;;6.20;66.70;;;;;;4997294;28;20027;-82
2021/04/23 06:02:28;;;;;;;0.68;0.68;;;6.20;66.80;;;;;;5013055;28;20382;-82
2021/04/23 06:04:54;;;;;;;1.15;0.90;;;6.30;67.00;;;;;;5003795;28;20022;-82
2021/04/23 06:07:20;;;;;;;1.30;0.80;;;6.40;67.00;;;;;;4999542;28;20044;-79
2021/04/23 06:09:45;;;;;;;1.27;1.17;;;6.50;66.90;;;;;;4999239;28;20038;-84
2021/04/23 06:12:14;;;;;;;0.85;0.85;;;6.60;66.80;;;;;;4998561;28;20045;-81
2021/04/23 06:14:39;;;;;;;0.55;0.55;;;6.80;66.60;;;;;;4997622;28;20030;-80
2021/04/23 06:17:05;;;;;;;0.63;0.63;;;7.00;66.30;;;;;;4997708;28;20029;-83
2021/04/23 06:19:32;;;;;;;0.50;0.50;;;7.10;66.00;;;;;;5003668;28;20097;-81
2021/04/23 06:21:59;;;;;;;1.17;0.80;;;7.20;66.10;;;;;;4998740;28;20470;-81
2021/04/23 06:24:25;;;;;;;0.52;0.52;;;7.30;66.20;;;;;;4996917;28;20018;-80
2021/04/23 06:26:52;;;;;;;0.73;0.73;;;7.40;66.20;;;;;;4995853;28;20532;-81
2021/04/23 06:29:18;;;;;;;0.50;0.50;;;7.50;66.00;;;;;;5005582;28;20030;-81
2021/04/23 06:31:43;;;;;;;0.70;0.70;;;7.60;65.80;;;;;;5012809;28;20022;-82
2021/04/23 06:34:09;;;;;;;0.75;0.70;;;7.70;65.80;;;;;;5036924;28;20030;-82
2021/04/23 06:36:35;;;;;;;0.93;0.70;;;7.70;65.90;;;;;;5035442;28;20461;-82
2021/04/23 06:39:00;;;;;;;0.73;0.73;;;7.80;65.80;;;;;;5036190;28;20025;-82
2021/04/23 06:41:26;;;;;;;0.50;0.50;;;8.00;65.60;;;;;;5036422;28;20021;-83
2021/04/23 06:43:53;;;;;;;1.20;0.90;;;8.10;65.50;;;;;;5036693;28;20029;-82
2021/04/23 06:46:19;;;;;;;0.47;0.47;;;8.20;65.30;;;;;;5031135;28;20022;-83
2021/04/23 06:48:48;;;;;;;0.73;0.73;;;8.30;65.30;;;;;;5015611;28;20052;-84
2021/04/23 06:51:14;;;;;;;1.00;0.80;;;8.40;65.20;;;;;;5004213;28;20089;-83
2021/04/23 06:53:40;;;;;;;1.20;0.57;;;8.30;65.20;;;;;;4996175;28;20031;-83
2021/04/23 06:56:05;;;;;;;0.57;0.57;;;8.30;65.60;;;;;;4995328;28;20031;-83
2021/04/23 06:58:31;;;;;;;0.45;0.45;;;8.20;65.90;;;;;;4996177;28;20030;-82
2021/04/23 07:00:57;;;;;;;0.52;0.50;;;8.20;65.90;;;;;;4996120;28;20034;-83
2021/04/23 07:03:23;;;;;;;0.75;0.75;;;8.30;65.80;;;;;;4995852;28;20031;-83
2021/04/23 07:05:48;;;;;;;0.70;0.70;;;8.40;65.60;;;;;;5000041;28;20048;-83
2021/04/23 07:08:14;;;;;;;4.25;1.85;;;8.50;65.50;;;;;;5010940;28;20026;-83
2021/04/23 07:10:40;;;;;;;0.60;0.50;;;8.60;65.50;;;;;;4995060;28;20061;-83
2021/04/23 07:13:09;;;;;;;0.80;0.80;;;8.80;65.30;;;;;;4995372;28;20105;-82
2021/04/23 07:15:35;;;;;;;0.73;0.73;;;8.80;65.00;;;;;;5009231;28;20018;-82
2021/04/23 07:18:02;;;;;;;0.90;0.90;;;8.80;65.10;;;;;;5015062;28;20021;-83
2021/04/23 07:20:29;;;;;;;0.98;0.80;;;8.60;65.40;;;;;;5012937;28;20018;-82
2021/04/23 07:22:55;;;;;;;0.82;0.82;;;8.40;65.90;;;;;;5014035;28;20478;-82
2021/04/23 07:25:22;;;;;;;2.22;1.30;;;8.40;66.30;;;;;;4999370;28;20089;-83
2021/04/23 07:27:48;;;;;;;0.73;0.60;;;8.50;66.20;;;;;;5015202;28;20549;-82
2021/04/23 07:30:25;;;;;;;1.40;1.30;;;8.70;65.90;;;;;;5012423;28;20124;-83
2021/04/23 07:32:51;;;;;;;1.10;0.93;;;8.70;65.50;;;;;;5011373;28;20018;-83
2021/04/23 07:35:17;;;;;;;1.45;0.88;;;8.50;65.70;;;;;;5012416;28;20121;-83
2021/04/23 07:37:43;;;;;;;1.17;0.80;;;8.50;65.90;;;;;;5010501;28;20104;-81
2021/04/23 07:40:12;;;;;;;0.80;0.80;;;8.60;65.80;;;;;;5007316;28;20017;-82
2021/04/23 07:42:38;;;;;;;0.88;0.70;;;8.80;65.60;;;;;;5014190;28;20030;-82
2021/04/23 07:45:06;;;;;;;0.70;0.70;;;8.90;65.20;;;;;;5013579;28;20092;-82
2021/04/23 07:47:31;;;;;;;1.73;0.68;;;9.00;65.10;;;;;;5015144;28;20018;-82
2021/04/23 07:49:57;;;;;;;0.80;0.70;;;8.90;65.10;;;;;;5014906;28;20049;-81
2021/04/23 07:52:23;;;;;;;0.73;0.60;;;9.00;65.00;;;;;;5012857;28;20084;-84
2021/04/23 07:54:48;;;;;;;0.60;0.60;;;9.30;64.70;;;;;;5013081;28;20093;-83
2021/04/23 07:57:14;;;;;;;0.80;0.80;;;9.50;64.10;;;;;;5012548;28;20378;-83
2021/04/23 07:59:40;;;;;;;1.77;1.00;;;9.50;64.00;;;;;;5014605;28;20037;-82
2021/04/23 08:02:07;;;;;;;0.90;0.90;;;9.40;64.00;;;;;;5014418;28;20576;-83
2021/04/23 08:04:34;;;;;;;1.50;1.00;;;9.30;64.50;;;;;;5014891;28;20025;-82
2021/04/23 08:07:00;;;;;;;1.23;0.90;;;9.30;64.40;;;;;;5016065;28;20076;-81
2021/04/23 08:09:26;;;;;;;0.75;0.70;;;9.30;64.20;;;;;;5015705;28;20041;-83
2021/04/23 08:11:51;;;;;;;1.13;0.90;;;9.30;64.40;;;;;;5015176;28;20038;-81
2021/04/23 08:14:17;;;;;;;1.15;0.73;;;9.50;64.20;;;;;;5017147;28;20045;-82
2021/04/23 08:16:43;;;;;;;1.05;0.82;;;9.50;64.10;;;;;;5014805;28;20381;-81
2021/04/23 08:19:08;;;;;;;0.82;0.80;;;9.60;63.90;;;;;;5018872;28;20427;-84
2021/04/23 08:21:34;;;;;;;1.30;0.70;;;9.80;63.50;;;;;;5020069;28;20492;-82
2021/04/23 08:23:59;;;;;;;1.02;1.02;;;9.80;63.30;;;;;;5016426;28;20503;-81
2021/04/23 08:26:25;;;;;;;0.75;0.75;;;9.80;63.40;;;;;;5014514;28;20018;-78
2021/04/23 08:28:51;;;;;;;0.70;0.70;;;9.80;63.40;;;;;;5013487;28;20034;-80
2021/04/23 08:31:17;;;;;;;0.98;0.77;;;9.90;63.40;;;;;;5016814;28;20025;-78
2021/04/23 08:33:42;;;;;;;1.48;0.90;;;10.00;63.30;;;;;;5016059;28;20117;-82
2021/04/23 08:36:08;;;;;;;1.17;0.70;;;10.00;63.20;;;;;;5013539;28;20461;-80
2021/04/23 08:38:34;;;;;;;0.63;0.50;;;9.90;63.30;;;;;;5013275;28;20029;-82
2021/04/23 08:41:00;;;;;;;2.30;0.80;;;9.80;63.50;;;;;;5002998;28;20504;-82
2021/04/23 08:43:27;;;;;;;1.52;0.70;;;9.80;63.50;;;;;;5000279;28;20027;-81
2021/04/23 08:45:54;;;;;;;2.85;1.00;;;10.00;63.20;;;;;;4996394;28;20046;-81
2021/04/23 08:48:21;;;;;;;0.95;0.90;;;10.00;63.10;;;;;;5017797;28;20030;-81
2021/04/23 08:50:47;;;;;;;2.60;1.88;;;10.00;63.00;;;;;;5013548;28;20532;-80
2021/04/23 08:53:13;;;;;;;1.95;1.00;;;9.90;62.90;;;;;;5014090;28;20029;-81
2021/04/23 08:55:39;;;;;;;1.33;1.23;;;9.90;62.80;;;;;;5014919;28;20025;-81
2021/04/23 08:58:05;;;;;;;1.15;0.90;;;9.80;63.00;;;;;;5013651;28;20083;-76
2021/04/23 09:00:31;;;;;;;0.90;0.90;;;9.70;63.30;;;;;;5013389;28;20355;-79
2021/04/23 09:02:57;;;;;;;1.30;0.90;;;9.80;63.90;;;;;;5014039;28;20033;-81
2021/04/23 09:05:22;;;;;;;1.58;1.05;;;9.90;62.90;;;;;;5013115;28;20022;-80
2021/04/23 09:08:05;;;;;;;3.15;1.20;;;10.00;62.60;;;;;;5013462;28;20030;-80
2021/04/23 09:10:32;;;;;;;1.38;1.27;;;10.00;62.60;;;;;;5013962;28;20042;-81
2021/04/23 09:13:07;;;;;;;4.35;2.63;;;9.90;62.70;;;;;;5013320;28;20029;-82
2021/04/23 09:15:33;;;;;;;1.65;1.05;;;9.70;63.00;;;;;;5015277;28;20471;-81
2021/04/23 09:18:08;;;;;;;1.10;1.00;;;9.40;63.50;;;;;;5013848;28;20092;-81
2021/04/23 09:20:37;;;;;;;1.63;1.08;;;9.30;63.90;;;;;;5013001;28;20033;-80
2021/04/23 09:23:13;;;;;;;0.95;0.82;;;9.30;63.90;;;;;;5014089;28;20052;-84
2021/04/23 09:25:59;;;;;;;1.25;0.90;;;9.60;63.50;;;;;;5013079;28;20033;-81
2021/04/23 09:28:40;;;;;;;0.90;0.90;;;9.90;63.00;;;;;;5005154;28;20069;-81
2021/04/23 09:31:38;;;;;;;0.90;0.90;;;10.00;62.60;;;;;;4997375;28;20416;-84
2021/04/23 09:34:05;;;;;;;2.78;1.40;;;10.30;62.10;;;;;;4995445;28;20039;-81
2021/04/23 09:36:33;;;;;;;1.02;1.02;;;10.30;61.80;;;;;;4997205;28;20028;-81
2021/04/23 09:39:17;;;;;;;1.98;1.10;;;10.20;61.90;;;;;;4997120;28;20026;-80
2021/04/23 09:41:56;;;;;;;1.65;1.33;;;10.20;62.00;;;;;;4997625;28;20018;-83
2021/04/23 09:44:30;;;;;;;2.28;1.52;;;10.00;62.40;;;;;;5000823;28;20041;-82
2021/04/23 09:47:25;;;;;;;1.20;1.05;;;9.80;62.90;;;;;;5016288;28;20030;-75
2021/04/23 09:49:55;;;;;;;1.67;0.88;;;9.80;63.00;;;;;;5016398;28;20387;-79
2021/04/23 09:52:22;;;;;;;1.88;1.77;;;9.80;62.90;;;;;;5018314;28;20029;-84
2021/04/23 09:54:50;;;;;;;0.88;0.88;;;10.00;62.60;;;;;;5020185;28;20479;-84
2021/04/23 09:57:30;;;;;;;1.83;0.70;;;10.10;62.40;;;;;;5018549;28;20049;-82
2021/04/23 09:59:58;;;;;;;0.95;0.95;;;10.30;62.10;;;;;;5015819;28;20044;-84
2021/04/23 10:02:29;;;;;;;1.50;1.00;;;10.40;61.80;;;;;;5016607;28;20095;-85
2021/04/23 10:04:55;;;;;;;0.75;0.75;;;10.50;61.80;;;;;;5017321;28;20037;-83
2021/04/23 10:07:22;;;;;;;1.20;1.00;;;10.60;61.70;;;;;;5017932;28;20022;-80
2021/04/23 10:09:55;;;;;;;0.93;0.70;;;10.70;61.50;;;;;;5020993;28;20048;-83
2021/04/23 10:12:39;;;;;;;1.65;1.08;;;10.90;61.40;;;;;;5016752;28;20477;-83
2021/04/23 10:15:12;;;;;;;1.13;0.80;;;10.90;61.10;;;;;;5018751;28;20474;-83
2021/04/23 10:17:40;;;;;;;2.35;1.27;;;10.80;61.40;;;;;;5017958;28;20383;-83
2021/04/23 10:20:08;;;;;;;1.55;1.00;;;10.80;61.40;;;;;;5016540;28;20026;-83
2021/04/23 10:22:34;;;;;;;1.00;1.00;;;10.90;61.40;;;;;;5015025;28;20056;-82
2021/04/23 10:25:00;;;;;;;1.65;1.27;;;11.00;61.30;;;;;;5016220;28;20053;-83
2021/04/23 10:27:25;;;;;;;2.60;1.63;;;11.10;61.20;;;;;;5016029;28;20494;-82
2021/04/23 10:29:52;;;;;;;0.90;0.90;;;11.20;61.00;;;;;;5016121;28;20048;-77
2021/04/23 10:32:20;;;;;;;0.85;0.70;;;11.30;60.90;;;;;;5015117;28;20524;-77
2021/04/23 10:34:46;;;;;;;0.93;0.77;;;11.50;60.70;;;;;;5015545;28;20470;-80
2021/04/23 10:37:12;;;;;;;1.50;0.95;;;11.60;60.50;;;;;;5016130;28;20053;-80
2021/04/23 10:39:41;;;;;;;2.17;1.00;;;11.70;60.40;;;;;;5014766;28;20025;-81
2021/04/23 10:42:47;;;;;;;1.42;0.70;;;11.70;60.30;;;;;;5015985;28;20560;-82
2021/04/23 10:45:23;;;;;;;3.13;1.25;;;11.90;60.30;;;;;;5015699;28;20018;-82
2021/04/23 10:47:50;;;;;;;0.93;0.80;;;12.00;59.90;;;;;;5015155;28;20057;-78
2021/04/23 10:50:21;;;;;;;2.65;1.13;;;11.90;60.10;;;;;;5015698;28;20034;-82
2021/04/23 10:53:11;;;;;;;1.13;0.85;;;12.00;60.10;;;;;;5015673;28;20018;-79
2021/04/23 10:55:48;;;;;;;2.00;1.33;;;12.10;59.90;;;;;;5015863;28;20026;-80
2021/04/23 10:58:30;;;;;;;0.95;0.77;;;12.10;59.90;;;;;;5015369;28;20033;-80
2021/04/23 11:00:59;;;;;;;1.08;0.85;;;12.20;59.80;;;;;;5014909;28;20056;-79
2021/04/23 11:03:38;;;;;;;1.27;0.88;;;12.40;59.40;;;;;;5015816;28;20611;-79
2021/04/23 11:06:05;;;;;;;;;;;12.60;59.20;;;;;;5015119;28;20065;-82
2021/04/23 11:08:36;;;;;;;1.45;1.30;;;12.70;59.20;;;;;;5014821;28;19909;-80
2021/04/23 11:11:02;;;;;;;1.08;0.73;;;12.90;59.00;;;;;;5009638;28;20384;-78
2021/04/23 11:13:29;;;;;;;3.90;1.05;;;13.10;58.90;;;;;;5002005;28;20025;-79
2021/04/23 11:16:23;;;;;;;1.52;0.90;;;13.30;58.50;;;;;;5002583;28;20022;-79
2021/04/23 11:18:53;;;;;;;0.65;0.65;;;13.40;58.40;;;;;;5014566;28;20399;-81
2021/04/23 11:21:35;;;;;;;1.17;1.10;;;13.50;58.20;;;;;;5010227;28;20022;-78
2021/04/23 11:24:21;;;;;;;2.17;1.10;;;13.50;57.90;;;;;;5014853;28;20033;-78
2021/04/23 11:29:32;;;;;;;0.45;0.43;;;13.60;58.20;;;;;;5013864;28;20041;-79
2021/04/23 11:32:07;;;;;;;0.90;0.90;;;13.80;57.80;;;;;;5014020;28;20490;-78
2021/04/23 11:34:39;;;;;;;0.85;0.75;;;13.80;57.60;;;;;;5014393;28;20022;-78
2021/04/23 11:37:09;;;;;;;1.55;1.00;;;13.80;57.70;;;;;;5014146;28;20097;-78
2021/04/23 11:39:44;;;;;;;1.42;1.17;;;13.70;57.50;;;;;;5014539;28;20032;-77
2021/04/23 11:42:14;;;;;;;2.55;1.30;;;14.00;57.30;;;;;;5014267;28;20029;-76
2021/04/23 11:44:45;;;;;;;1.45;1.27;;;14.30;56.50;;;;;;5013943;28;20025;-78
2021/04/23 11:47:15;;;;;;;3.47;1.48;;;14.50;55.90;;;;;;5014192;28;20364;-78
2021/04/23 11:49:41;;;;;;;1.65;1.17;;;14.90;55.70;;;;;;5010326;28;20113;-74
2021/04/23 11:52:07;;;;;;;1.88;1.20;;;15.10;54.80;;;;;;5006019;28;20022;-75
2021/04/23 11:54:42;;;;;;;1.08;0.90;;;14.90;55.10;;;;;;4994458;28;20033;-76
2021/04/23 11:57:12;;;;;;;1.20;0.85;;;14.90;55.30;;;;;;5006093;28;20076;-77
2021/04/23 12:00:10;;;;;;;1.00;0.80;;;15.50;54.80;;;;;;5028822;28;20014;-75
2021/04/23 12:02:45;;;;;;;0.77;0.73;;;16.00;54.10;;;;;;5014028;28;20037;-76
2021/04/23 12:05:36;;;;;;;2.78;0.90;;;16.70;53.20;;;;;;5013931;28;20040;-76
2021/04/23 12:08:14;;;;;;;2.25;0.82;;;16.80;52.90;;;;;;5013650;28;20018;-78
2021/04/23 12:10:46;;;;;;;0.80;0.80;;;16.80;52.60;;;;;;5013905;28;20061;-78
2021/04/23 12:13:19;;;;;;;0.75;0.68;;;16.50;53.20;;;;;;5013508;28;20052;-82
2021/04/23 12:15:46;;;;;;;0.63;0.60;;;16.00;54.00;;;;;;5013849;28;20022;-78
2021/04/23 12:18:13;;;;;;;2.05;0.90;;;15.90;54.70;;;;;;5012119;28;20030;-79
2021/04/23 12:20:45;;;;;;;0.50;0.50;;;16.50;53.60;;;;;;5012731;28;20053;-83
2021/04/23 12:23:13;;;;;;;0.50;0.50;;;17.20;52.60;;;;;;5013699;28;20034;-76
2021/04/23 12:25:44;;;;;;;1.42;0.60;;;17.80;51.30;;;;;;5027982;28;20026;-77
2021/04/23 12:28:15;;;;;;;0.98;0.90;;;18.00;51.00;;;;;;5033651;28;20052;-78
2021/04/23 12:30:41;;;;;;;0.43;0.43;;;18.40;50.70;;;;;;5033558;28;20057;-73
2021/04/23 12:33:07;;;;;;;0.75;0.63;;;18.60;50.70;;;;;;5017032;28;20450;-74
2021/04/23 12:35:38;;;;;;;0.63;0.57;;;18.70;50.50;;;;;;5013467;28;20471;-74
2021/04/23 12:38:07;;;;;;;0.55;0.45;;;18.90;50.70;;;;;;5013662;28;20026;-74
2021/04/23 12:40:35;;;;;;;1.20;0.73;;;19.00;50.00;;;;;;5013550;28;20104;-75
2021/04/23 12:43:19;;;;;;;0.90;0.90;;;18.80;50.40;;;;;;5012975;28;20022;-72
2021/04/23 12:45:53;;;;;;;1.35;0.73;;;18.80;50.20;;;;;;5002340;28;20053;-78
2021/04/23 12:48:21;;;;;;;0.77;0.60;;;18.70;50.40;;;;;;4995081;28;20038;-78
2021/04/23 12:50:49;;;;;;;1.08;1.05;;;18.70;50.40;;;;;;5014620;28;20038;-78
2021/04/23 12:53:19;;;;;;;0.45;0.43;;;18.50;50.50;;;;;;5013593;28;20026;-79
2021/04/23 12:55:44;;;;;;;1.10;0.52;;;18.70;50.30;;;;;;5013495;28;20534;-77
2021/04/23 12:58:11;;;;;;;0.73;0.73;;;18.90;50.00;;;;;;5013430;28;20105;-78
2021/04/23 13:00:38;;;;;;;3.13;0.80;;;19.00;49.50;;;;;;5013353;28;20029;-78
2021/04/23 13:03:04;;;;;;;1.17;0.68;;;19.20;49.20;;;;;;5014615;28;20026;-77
2021/04/23 13:05:30;;;;;;;0.50;0.50;;;19.60;48.50;;;;;;5017393;28;20029;-77